Time;durP1;ratioP1;P1;durP2;ratioP2;P2;SDS_P1;SDS_P2;PMS_P1;PMS_P2;Temp;Humidity;BMP_temperature;BMP_pressure;BME280_temperature;BME280_humidity;BME280_pressure;Samples;Min_cycle;Max_cycle;Signal;HPM_P1;HPM_P2
2023/10/25 00:00:29;;;;;;;29.42;16.85;;;10.60;99.90;;;;;;5007539;28;20104;-71
2023/10/25 00:02:55;;;;;;;30.60;16.77;;;10.60;99.90;;;;;;5008244;28;20537;-70
2023/10/25 00:05:21;;;;;;;29.92;16.52;;;10.60;99.90;;;;;;5009499;28;20057;-71
2023/10/25 00:07:47;;;;;;;28.50;15.63;;;10.60;99.90;;;;;;5009225;28;20143;-70
2023/10/25 00:10:13;;;;;;;28.88;16.00;;;10.70;99.90;;;;;;4993279;28;20045;-72
2023/10/25 00:12:39;;;;;;;27.23;16.08;;;10.60;99.90;;;;;;5006721;28;20062;-72
2023/10/25 00:15:05;;;;;;;27.95;15.93;;;10.60;99.90;;;;;;5016434;28;20091;-71
2023/10/25 00:17:31;;;;;;;38.63;17.92;;;10.70;99.90;;;;;;5010813;28;20061;-71
2023/10/25 00:19:57;;;;;;;30.05;16.35;;;10.70;99.90;;;;;;5010487;28;20029;-71
2023/10/25 00:22:22;;;;;;;30.80;15.82;;;10.60;99.90;;;;;;5009161;28;20492;-70
2023/10/25 00:24:48;;;;;;;28.70;15.88;;;10.60;99.90;;;;;;5016369;28;20025;-71
2023/10/25 00:27:14;;;;;;;29.77;15.35;;;10.60;99.90;;;;;;5017118;28;20442;-71
2023/10/25 00:29:39;;;;;;;24.73;14.07;;;10.60;99.90;;;;;;5008545;28;20032;-70
2023/10/25 00:32:05;;;;;;;26.33;12.57;;;10.50;99.90;;;;;;5006531;28;20057;-72
2023/10/25 00:34:31;;;;;;;19.95;11.20;;;10.40;99.90;;;;;;5010916;28;20109;-72
2023/10/25 00:36:57;;;;;;;18.25;10.20;;;10.40;99.90;;;;;;5026328;28;20700;-71
2023/10/25 00:39:22;;;;;;;17.20;10.13;;;10.30;99.90;;;;;;4994024;28;20030;-71
2023/10/25 00:41:48;;;;;;;17.73;9.30;;;10.30;99.90;;;;;;5007529;28;20034;-70
2023/10/25 00:44:14;;;;;;;17.63;9.68;;;10.30;99.90;;;;;;5009864;28;20109;-71
2023/10/25 00:46:40;;;;;;;16.42;8.93;;;10.20;99.90;;;;;;5018682;28;20037;-71
2023/10/25 00:49:07;;;;;;;17.10;9.15;;;10.20;99.90;;;;;;5013801;28;20034;-70
2023/10/25 00:51:33;;;;;;;16.08;9.43;;;10.10;99.90;;;;;;5016567;28;20030;-71
2023/10/25 00:54:01;;;;;;;15.43;8.52;;;10.10;99.90;;;;;;5012999;28;20140;-70
2023/10/25 00:56:31;;;;;;;15.57;8.88;;;10.10;99.90;;;;;;5028603;28;20037;-71
2023/10/25 00:58:58;;;;;;;16.60;8.48;;;10.10;99.90;;;;;;5021234;28;20556;-71
2023/10/25 01:01:25;;;;;;;14.40;8.75;;;10.10;99.90;;;;;;5007534;28;20049;-71
2023/10/25 01:03:52;;;;;;;13.98;8.05;;;10.10;99.90;;;;;;5015658;28;20053;-70
2023/10/25 01:06:18;;;;;;;15.35;8.55;;;10.10;99.90;;;;;;5001701;28;20029;-70
2023/10/25 01:08:44;;;;;;;14.32;8.38;;;10.10;99.90;;;;;;5008814;28;20118;-71
2023/10/25 01:11:11;;;;;;;15.90;8.30;;;10.00;99.90;;;;;;5008282;28;20057;-70
2023/10/25 01:13:37;;;;;;;14.68;8.88;;;10.00;99.90;;;;;;5015288;28;20060;-72
2023/10/25 01:16:03;;;;;;;18.10;9.52;;;10.00;99.90;;;;;;5016944;28;20029;-71
2023/10/25 01:18:29;;;;;;;15.82;8.80;;;9.90;99.90;;;;;;5011088;28;20453;-70
2023/10/25 01:20:54;;;;;;;15.30;8.60;;;9.90;99.90;;;;;;5007525;28;20041;-70
2023/10/25 01:23:20;;;;;;;15.40;8.07;;;9.90;99.90;;;;;;5013698;28;20030;-70
2023/10/25 01:25:46;;;;;;;15.25;8.98;;;9.90;99.90;;;;;;5005595;28;20029;-70
2023/10/25 01:28:12;;;;;;;16.58;8.32;;;9.80;99.90;;;;;;5007790;28;20034;-71
2023/10/25 01:30:39;;;;;;;13.48;8.02;;;9.80;99.90;;;;;;5007476;28;20053;-70
2023/10/25 01:33:05;;;;;;;15.88;8.52;;;9.90;99.90;;;;;;5008888;28;20185;-70
2023/10/25 01:35:31;;;;;;;14.82;8.25;;;9.90;99.90;;;;;;4994589;28;20037;-72
2023/10/25 01:37:57;;;;;;;15.52;8.52;;;9.90;99.90;;;;;;5013236;28;20029;-70
2023/10/25 01:40:22;;;;;;;307.75;12.57;;;9.80;99.90;;;;;;5017079;28;20472;-71
2023/10/25 01:42:51;;;;;;;16.13;8.20;;;9.80;99.90;;;;;;5009753;28;20030;-70
2023/10/25 01:45:16;;;;;;;104.78;10.98;;;9.70;99.90;;;;;;5005611;28;20096;-70
2023/10/25 01:47:42;;;;;;;14.05;7.30;;;9.60;99.90;;;;;;5009040;28;20416;-72
2023/10/25 01:50:08;;;;;;;12.07;7.43;;;9.60;99.90;;;;;;5014299;28;20036;-71
2023/10/25 01:52:34;;;;;;;13.63;7.85;;;9.60;99.90;;;;;;5007168;28;20046;-72
2023/10/25 01:55:00;;;;;;;15.38;8.68;;;9.60;99.90;;;;;;5006185;28;20482;-71
2023/10/25 01:57:25;;;;;;;16.38;8.43;;;9.60;99.90;;;;;;5008061;28;20022;-70
2023/10/25 01:59:51;;;;;;;16.38;8.68;;;9.60;99.90;;;;;;5006428;28;20038;-70
2023/10/25 02:02:17;;;;;;;79.22;9.45;;;9.60;99.90;;;;;;5013757;28;20036;-70
2023/10/25 02:04:43;;;;;;;13.55;8.10;;;9.60;99.90;;;;;;4988274;28;20033;-70
2023/10/25 02:07:08;;;;;;;26.77;8.65;;;9.60;99.90;;;;;;5019619;28;20466;-70
2023/10/25 02:09:34;;;;;;;17.13;8.23;;;9.50;99.90;;;;;;5007110;28;20112;-72
2023/10/25 02:11:59;;;;;;;15.50;8.35;;;9.40;99.90;;;;;;5007800;28;20100;-70
2023/10/25 02:14:25;;;;;;;19.90;7.93;;;9.40;99.90;;;;;;5008355;28;20061;-72
2023/10/25 02:16:51;;;;;;;15.23;9.00;;;9.40;99.90;;;;;;4998413;28;20037;-70
2023/10/25 02:19:17;;;;;;;14.68;8.40;;;9.40;99.90;;;;;;4977595;28;20041;-74
2023/10/25 02:21:42;;;;;;;15.68;9.18;;;9.30;99.90;;;;;;4992592;28;20502;-71
2023/10/25 02:24:14;;;;;;;16.00;9.13;;;9.30;99.90;;;;;;4999557;28;20034;-71
2023/10/25 02:26:40;;;;;;;15.82;8.70;;;9.30;99.90;;;;;;5001442;28;20026;-71
2023/10/25 02:29:05;;;;;;;14.40;8.30;;;9.30;99.90;;;;;;5007746;28;20511;-70
2023/10/25 02:31:33;;;;;;;19.30;9.70;;;9.30;99.90;;;;;;5006910;28;20034;-70
2023/10/25 02:33:59;;;;;;;14.73;8.27;;;9.30;99.90;;;;;;5005994;28;20463;-70
2023/10/25 02:36:25;;;;;;;17.48;9.00;;;9.30;99.90;;;;;;5006789;28;20041;-70
2023/10/25 02:38:51;;;;;;;20.08;10.30;;;9.30;99.90;;;;;;5010485;28;20029;-70
2023/10/25 02:41:16;;;;;;;462.17;12.50;;;9.20;99.90;;;;;;5007337;28;20394;-70
2023/10/25 02:43:43;;;;;;;202.75;7.82;;;9.10;99.90;;;;;;4991200;28;20394;-71
2023/10/25 02:46:09;;;;;;;11.57;4.57;;;9.00;99.90;;;;;;5010429;28;20026;-71
2023/10/25 02:48:38;;;;;;;174.65;7.90;;;8.80;99.90;;;;;;5026937;28;20030;-73
2023/10/25 02:51:05;;;;;;;12.38;7.28;;;8.60;99.90;;;;;;5017998;28;20477;-70
2023/10/25 02:53:31;;;;;;;12.65;7.13;;;8.50;99.90;;;;;;5013920;28;20021;-70
2023/10/25 02:56:01;;;;;;;15.23;7.68;;;8.60;99.90;;;;;;5008513;28;20037;-70
2023/10/25 02:58:27;;;;;;;14.00;7.18;;;8.70;99.90;;;;;;5016202;28;20037;-70
2023/10/25 03:00:53;;;;;;;13.88;7.60;;;8.80;99.90;;;;;;5020213;28;20088;-70
2023/10/25 03:03:19;;;;;;;19.27;8.93;;;8.70;99.90;;;;;;5022659;28;20026;-70
2023/10/25 03:05:45;;;;;;;17.52;8.15;;;8.60;99.90;;;;;;5011527;28;20101;-70
2023/10/25 03:08:10;;;;;;;11.57;6.05;;;8.60;99.90;;;;;;5006537;28;20033;-71
2023/10/25 03:10:36;;;;;;;9.60;5.43;;;8.50;99.90;;;;;;5011453;28;20037;-71
2023/10/25 03:13:02;;;;;;;10.25;6.15;;;8.50;99.90;;;;;;5012780;28;20057;-70
2023/10/25 03:15:27;;;;;;;9.98;5.82;;;8.40;99.90;;;;;;5018337;28;20544;-70
2023/10/25 03:17:54;;;;;;;11.55;6.00;;;8.40;99.90;;;;;;5009644;28;20059;-70
2023/10/25 03:20:20;;;;;;;10.85;6.30;;;8.40;99.90;;;;;;5017757;28;20029;-71
2023/10/25 03:22:45;;;;;;;11.07;6.55;;;8.40;99.90;;;;;;5015978;28;20088;-70
2023/10/25 03:25:11;;;;;;;10.98;6.68;;;8.40;99.90;;;;;;5012986;28;20025;-70
2023/10/25 03:27:37;;;;;;;12.85;7.25;;;8.40;99.90;;;;;;5003145;28;20680;-72
2023/10/25 03:30:03;;;;;;;11.88;6.70;;;8.40;99.90;;;;;;5009104;28;20492;-70
2023/10/25 03:32:29;;;;;;;15.65;6.65;;;8.40;99.90;;;;;;5004811;28;20097;-70
2023/10/25 03:34:54;;;;;;;736.72;21.65;;;8.40;99.90;;;;;;4996157;28;20440;-70
2023/10/25 03:37:20;;;;;;;17.13;4.32;;;8.30;99.90;;;;;;5008110;28;20029;-70
2023/10/25 03:39:46;;;;;;;109.18;5.95;;;8.20;99.90;;;;;;4974553;28;20070;-70
2023/10/25 03:42:11;;;;;;;13.57;5.15;;;8.10;99.90;;;;;;5014553;28;20148;-70
2023/10/25 03:44:37;;;;;;;9.07;5.10;;;8.00;99.90;;;;;;5010460;28;20473;-71
2023/10/25 03:47:03;;;;;;;55.35;5.63;;;7.90;99.90;;;;;;5009171;28;20030;-70
2023/10/25 03:49:29;;;;;;;69.22;5.82;;;7.90;99.90;;;;;;5013351;28;20037;-71
2023/10/25 03:51:55;;;;;;;63.05;5.10;;;7.90;99.90;;;;;;5028277;28;20373;-70
2023/10/25 03:54:20;;;;;;;15.32;4.57;;;7.80;99.90;;;;;;4990653;28;20045;-69
2023/10/25 03:56:46;;;;;;;382.63;8.27;;;7.60;99.90;;;;;;4989561;28;20133;-69
2023/10/25 03:59:12;;;;;;;34.17;3.72;;;7.50;99.90;;;;;;4993744;28;20109;-70
2023/10/25 04:01:40;;;;;;;42.50;4.03;;;7.40;99.90;;;;;;5029729;28;20042;-70
2023/10/25 04:04:06;;;;;;;48.13;4.70;;;7.30;99.90;;;;;;5009850;28;20042;-70
2023/10/25 04:06:32;;;;;;;10.10;3.88;;;7.30;99.90;;;;;;4992122;28;20637;-70
2023/10/25 04:08:58;;;;;;;10.07;5.40;;;7.30;99.90;;;;;;5002312;28;20095;-70
2023/10/25 04:11:24;;;;;;;46.30;6.20;;;7.20;99.90;;;;;;5028523;28;20140;-70
2023/10/25 04:13:49;;;;;;;11.82;6.30;;;7.30;99.90;;;;;;4991502;28;20420;-72
2023/10/25 04:16:15;;;;;;;50.28;10.35;;;7.30;99.90;;;;;;5009900;28;20072;-72
2023/10/25 04:18:41;;;;;;;29.38;13.70;;;7.30;99.90;;;;;;4990784;28;20448;-72
2023/10/25 04:21:11;;;;;;;28.20;11.90;;;7.20;99.90;;;;;;5026201;28;20477;-70
2023/10/25 04:23:37;;;;;;;59.65;13.20;;;7.30;99.90;;;;;;5005855;28;20037;-70
2023/10/25 04:26:04;;;;;;;27.45;11.52;;;7.30;99.90;;;;;;5008594;28;20069;-70
2023/10/25 04:28:30;;;;;;;17.30;8.60;;;7.20;99.90;;;;;;5008735;28;20054;-70
2023/10/25 04:30:55;;;;;;;33.22;7.82;;;7.10;99.90;;;;;;5008849;28;20030;-70
2023/10/25 04:33:21;;;;;;;25.38;8.48;;;7.00;99.90;;;;;;5008055;28;20077;-71
2023/10/25 04:35:46;;;;;;;72.25;11.60;;;7.00;99.90;;;;;;5014629;28;20056;-70
2023/10/25 04:38:12;;;;;;;148.88;13.98;;;7.00;99.90;;;;;;5014274;28;20484;-70
2023/10/25 04:40:37;;;;;;;21.30;10.70;;;7.00;99.90;;;;;;5021195;28;20080;-70
2023/10/25 04:43:03;;;;;;;31.20;10.23;;;6.90;99.90;;;;;;4991343;28;20295;-70
2023/10/25 04:45:29;;;;;;;23.45;11.60;;;6.80;99.90;;;;;;5012225;28;20117;-73
2023/10/25 04:47:55;;;;;;;31.27;9.63;;;6.80;99.90;;;;;;5006866;28;20105;-72
2023/10/25 04:50:21;;;;;;;277.30;11.65;;;6.90;99.90;;;;;;5009161;28;20028;-70
2023/10/25 04:52:48;;;;;;;69.05;8.02;;;6.90;99.90;;;;;;5003723;28;20860;-69
2023/10/25 04:55:13;;;;;;;19.08;6.70;;;6.80;99.90;;;;;;5016676;28;20095;-70
2023/10/25 04:57:39;;;;;;;90.70;8.55;;;6.80;99.90;;;;;;5013103;28;20034;-70
2023/10/25 05:00:09;;;;;;;15.23;6.82;;;6.80;99.90;;;;;;5014750;28;20764;-69
2023/10/25 05:02:40;;;;;;;12.93;5.68;;;6.90;99.90;;;;;;5005877;28;20026;-70
2023/10/25 05:05:07;;;;;;;48.40;8.20;;;6.90;99.90;;;;;;5026306;28;20064;-69
2023/10/25 05:07:35;;;;;;;27.58;5.97;;;6.90;99.90;;;;;;5008425;28;20065;-70
2023/10/25 05:10:01;;;;;;;15.07;6.60;;;6.80;99.90;;;;;;5010719;28;20021;-70
2023/10/25 05:12:41;;;;;;;23.10;7.68;;;6.80;99.90;;;;;;5008098;28;20061;-70
2023/10/25 05:15:07;;;;;;;14.60;7.63;;;6.80;99.90;;;;;;5000084;28;20107;-69
2023/10/25 05:17:34;;;;;;;14.43;7.72;;;6.80;99.90;;;;;;5012521;28;20281;-70
2023/10/25 05:20:00;;;;;;;15.77;7.07;;;6.80;99.90;;;;;;5016822;28;20034;-69
2023/10/25 05:22:29;;;;;;;12.50;5.95;;;6.80;99.90;;;;;;5008049;28;20471;-69
2023/10/25 05:24:55;;;;;;;23.70;6.80;;;6.80;99.90;;;;;;5007953;28;20030;-70
2023/10/25 05:27:21;;;;;;;160.88;7.20;;;6.70;99.90;;;;;;5003572;28;20027;-70
2023/10/25 05:29:47;;;;;;;66.00;7.47;;;6.70;99.90;;;;;;4988494;28;20037;-72
2023/10/25 05:32:17;;;;;;;130.45;6.80;;;6.60;99.90;;;;;;5008570;28;20045;-71
2023/10/25 05:34:43;;;;;;;148.95;6.88;;;6.60;99.90;;;;;;5009714;28;20532;-70
2023/10/25 05:37:09;;;;;;;5.85;3.30;;;6.60;99.90;;;;;;5021528;28;20038;-70
2023/10/25 05:39:35;;;;;;;8.52;4.63;;;6.60;99.90;;;;;;5009988;28;20057;-72
2023/10/25 05:42:04;;;;;;;9.93;4.53;;;6.60;99.90;;;;;;5002216;28;20528;-71
2023/10/25 05:44:30;;;;;;;20.70;4.95;;;6.70;99.90;;;;;;5004805;28;20608;-71
2023/10/25 05:46:56;;;;;;;12.43;5.40;;;6.70;99.90;;;;;;5001905;28;20556;-70
2023/10/25 05:49:22;;;;;;;15.65;7.68;;;6.70;99.90;;;;;;5009619;28;20029;-70
2023/10/25 05:51:48;;;;;;;39.45;8.15;;;6.70;99.90;;;;;;5007955;28;20037;-72
2023/10/25 05:54:14;;;;;;;12.05;7.05;;;6.70;99.90;;;;;;5006883;28;20088;-70
2023/10/25 05:56:39;;;;;;;12.38;6.72;;;6.70;99.90;;;;;;5008315;28;20030;-71
2023/10/25 05:59:05;;;;;;;11.68;6.35;;;6.80;99.90;;;;;;5015044;28;20112;-70
2023/10/25 06:01:45;;;;;;;11.90;6.95;;;6.80;99.90;;;;;;5026925;28;20109;-70
2023/10/25 06:04:12;;;;;;;12.10;6.43;;;6.80;99.90;;;;;;5002853;28;20022;-70
2023/10/25 06:06:41;;;;;;;11.55;6.13;;;6.80;99.90;;;;;;5018208;28;20367;-70
2023/10/25 06:09:08;;;;;;;11.20;6.50;;;6.90;99.90;;;;;;5012468;28;20465;-70
2023/10/25 06:11:34;;;;;;;12.82;5.90;;;7.00;99.90;;;;;;5014619;28;20504;-70
2023/10/25 06:14:00;;;;;;;12.20;6.40;;;7.10;99.90;;;;;;5010882;28;20099;-70
2023/10/25 06:16:26;;;;;;;16.10;5.57;;;7.20;99.90;;;;;;5022756;28;20034;-70
2023/10/25 06:18:51;;;;;;;13.77;5.88;;;7.30;99.90;;;;;;5025436;28;20026;-70
2023/10/25 06:21:17;;;;;;;17.25;9.38;;;7.30;99.90;;;;;;5013115;28;20042;-70
2023/10/25 06:23:42;;;;;;;37.35;6.05;;;7.20;99.90;;;;;;5012538;28;20452;-70
2023/10/25 06:26:08;;;;;;;10.77;5.53;;;7.10;99.90;;;;;;5019146;28;20031;-71
2023/10/25 06:28:34;;;;;;;325.63;13.57;;;7.10;99.90;;;;;;5031959;28;20108;-70
2023/10/25 06:31:00;;;;;;;48.45;5.10;;;7.10;99.90;;;;;;5027677;28;20036;-70
2023/10/25 06:33:26;;;;;;;11.88;5.07;;;6.80;99.90;;;;;;5028535;28;20461;-70
2023/10/25 06:35:53;;;;;;;170.48;7.03;;;7.00;99.90;;;;;;5031309;28;20128;-70
2023/10/25 06:38:19;;;;;;;11.85;4.65;;;7.10;99.90;;;;;;5031987;28;20018;-70
2023/10/25 06:40:45;;;;;;;37.83;4.90;;;7.10;99.90;;;;;;4994367;28;20444;-70
2023/10/25 06:43:11;;;;;;;192.02;6.78;;;7.00;99.90;;;;;;5011652;28;20026;-70
2023/10/25 06:45:37;;;;;;;6.95;3.78;;;6.90;99.90;;;;;;5011678;28;20519;-70
2023/10/25 06:48:03;;;;;;;6.25;3.95;;;6.90;99.90;;;;;;5010952;28;20025;-70
2023/10/25 06:50:29;;;;;;;10.00;5.60;;;7.00;99.90;;;;;;5011762;28;20429;-70
2023/10/25 06:52:55;;;;;;;33.60;18.20;;;7.20;99.90;;;;;;4994189;28;20050;-71
2023/10/25 06:55:21;;;;;;;150.68;11.75;;;7.30;99.90;;;;;;5030341;28;20024;-70
2023/10/25 06:57:48;;;;;;;16.73;7.55;;;7.50;99.90;;;;;;5019422;28;20026;-69
2023/10/25 07:00:14;;;;;;;46.17;7.70;;;7.50;99.90;;;;;;5023332;28;20025;-71
2023/10/25 07:02:53;;;;;;;229.20;11.63;;;7.50;99.90;;;;;;5013162;28;20053;-70
2023/10/25 07:05:23;;;;;;;14.43;7.43;;;7.50;99.90;;;;;;5015452;28;20026;-70
2023/10/25 07:07:50;;;;;;;14.65;7.55;;;7.60;99.90;;;;;;5001493;28;20053;-73
2023/10/25 07:10:17;;;;;;;13.13;6.82;;;7.70;99.90;;;;;;5030955;28;20033;-70
2023/10/25 07:12:42;;;;;;;13.13;6.97;;;7.90;99.90;;;;;;5020284;28;20092;-71
2023/10/25 07:15:10;;;;;;;13.75;7.22;;;8.10;99.90;;;;;;5020175;28;20064;-70
2023/10/25 07:17:37;;;;;;;12.93;6.75;;;8.40;99.90;;;;;;5018710;28;20022;-70
2023/10/25 07:20:03;;;;;;;13.50;6.78;;;8.60;99.90;;;;;;5017157;28;20034;-70
2023/10/25 07:22:29;;;;;;;309.13;18.23;;;8.70;99.90;;;;;;5014193;28;20104;-70
2023/10/25 07:24:55;;;;;;;12.90;7.15;;;8.70;99.90;;;;;;5015484;28;20038;-71
2023/10/25 07:27:21;;;;;;;11.57;6.82;;;8.60;99.90;;;;;;5010805;28;20470;-70
2023/10/25 07:29:48;;;;;;;14.20;6.03;;;8.60;99.90;;;;;;5013346;28;20037;-70
2023/10/25 07:32:13;;;;;;;21.13;8.90;;;8.70;99.90;;;;;;5015044;28;20024;-70
2023/10/25 07:34:40;;;;;;;18.85;8.40;;;8.80;99.90;;;;;;5030702;28;20033;-69
2023/10/25 07:37:05;;;;;;;16.88;8.00;;;8.90;99.90;;;;;;5025908;28;20018;-70
2023/10/25 07:39:31;;;;;;;24.00;10.73;;;9.10;99.90;;;;;;5010970;28;20041;-70
2023/10/25 07:41:57;;;;;;;19.95;9.95;;;9.20;99.90;;;;;;5011439;28;20112;-70
2023/10/25 07:44:22;;;;;;;19.45;7.82;;;9.30;99.90;;;;;;5010965;28;20042;-70
2023/10/25 07:46:48;;;;;;;11.32;6.30;;;9.40;99.90;;;;;;5012362;28;20046;-72
2023/10/25 07:49:14;;;;;;;12.77;6.97;;;9.60;99.90;;;;;;5010057;28;20057;-70
2023/10/25 07:51:39;;;;;;;13.57;6.72;;;9.70;99.90;;;;;;5010717;28;20061;-70
2023/10/25 07:54:05;;;;;;;11.23;5.70;;;9.80;99.90;;;;;;5009888;28;20030;-70
2023/10/25 07:56:31;;;;;;;10.88;4.43;;;9.90;99.90;;;;;;5010651;28;20030;-70
2023/10/25 07:58:57;;;;;;;7.25;3.88;;;10.00;99.90;;;;;;4992373;28;20037;-70
2023/10/25 08:01:23;;;;;;;5.68;3.50;;;10.10;99.90;;;;;;5010470;28;20034;-70
2023/10/25 08:03:49;;;;;;;6.20;3.08;;;10.20;99.90;;;;;;5010556;28;20526;-70
2023/10/25 08:06:15;;;;;;;5.95;3.63;;;10.30;99.90;;;;;;5009491;28;20025;-70
2023/10/25 08:08:40;;;;;;;6.43;3.70;;;10.50;99.90;;;;;;5025955;28;20033;-70
2023/10/25 08:11:07;;;;;;;9.45;5.30;;;10.70;99.90;;;;;;5029215;28;20029;-70
2023/10/25 08:13:34;;;;;;;9.93;4.07;;;10.80;99.90;;;;;;5023400;28;20061;-71
2023/10/25 08:16:02;;;;;;;5.38;3.15;;;10.80;99.90;;;;;;5009029;28;20054;-70
2023/10/25 08:18:29;;;;;;;5.18;3.20;;;10.80;99.90;;;;;;5010317;28;20029;-70
2023/10/25 08:20:56;;;;;;;5.53;3.03;;;10.90;99.90;;;;;;5009900;28;20026;-72
2023/10/25 08:23:22;;;;;;;5.40;2.90;;;11.10;99.90;;;;;;5013005;28;20025;-70
2023/10/25 08:25:48;;;;;;;7.05;2.70;;;11.10;99.90;;;;;;5024675;28;20061;-70
2023/10/25 08:28:14;;;;;;;4.97;2.72;;;11.40;99.90;;;;;;5009178;28;20038;-70
2023/10/25 08:30:40;;;;;;;5.38;3.08;;;11.60;99.90;;;;;;5010196;28;20390;-71
2023/10/25 08:33:05;;;;;;;4.82;2.50;;;11.80;99.90;;;;;;5009399;28;20044;-70
2023/10/25 08:35:31;;;;;;;4.88;2.80;;;12.00;99.90;;;;;;5027740;28;20044;-70
2023/10/25 08:37:57;;;;;;;4.72;2.60;;;12.00;99.90;;;;;;5009396;28;20042;-71
2023/10/25 08:40:26;;;;;;;5.10;2.53;;;12.10;99.90;;;;;;5022100;28;20033;-71
2023/10/25 08:42:52;;;;;;;4.50;2.67;;;12.10;99.90;;;;;;5029558;28;20077;-71
2023/10/25 08:45:19;;;;;;;7.80;2.80;;;12.10;99.90;;;;;;5016106;28;20201;-71
2023/10/25 08:47:45;;;;;;;8.60;3.22;;;12.00;99.90;;;;;;5009440;28;20458;-71
2023/10/25 08:50:13;;;;;;;6.32;2.40;;;11.80;99.90;;;;;;5018520;28;20041;-71
2023/10/25 08:52:44;;;;;;;5.53;2.95;;;11.80;99.90;;;;;;5029401;28;20037;-71
2023/10/25 08:55:10;;;;;;;6.43;2.90;;;11.70;99.90;;;;;;5013163;28;20032;-70
2023/10/25 08:57:38;;;;;;;5.40;2.80;;;11.90;99.90;;;;;;5011659;28;20052;-71
2023/10/25 09:00:07;;;;;;;4.95;2.80;;;12.00;99.90;;;;;;5015591;28;20033;-71
2023/10/25 09:02:39;;;;;;;5.90;2.97;;;12.20;99.90;;;;;;5029302;28;20142;-71
2023/10/25 09:05:08;;;;;;;5.88;3.28;;;12.30;99.90;;;;;;5023124;28;20401;-70
2023/10/25 09:07:36;;;;;;;5.57;2.78;;;12.50;99.90;;;;;;5009203;28;20041;-71
2023/10/25 09:10:03;;;;;;;6.07;3.05;;;12.50;99.90;;;;;;4998995;28;20041;-71
2023/10/25 09:12:30;;;;;;;6.75;3.05;;;12.50;99.90;;;;;;5028599;28;20072;-71
2023/10/25 09:14:56;;;;;;;6.68;3.47;;;12.60;99.90;;;;;;5019155;28;20064;-71
2023/10/25 09:17:22;;;;;;;6.38;3.33;;;12.90;99.90;;;;;;5008867;28;20889;-71
2023/10/25 09:19:49;;;;;;;6.28;3.35;;;13.00;99.90;;;;;;5014641;28;20174;-71
2023/10/25 09:22:26;;;;;;;6.43;3.55;;;12.90;99.90;;;;;;5028047;28;20188;-70
2023/10/25 09:24:58;;;;;;;6.82;3.40;;;12.70;99.90;;;;;;5026584;28;20032;-70
2023/10/25 09:27:25;;;;;;;6.53;3.72;;;12.50;99.90;;;;;;5008939;28;20041;-71
2023/10/25 09:29:52;;;;;;;8.77;3.70;;;12.50;99.90;;;;;;4996100;28;20033;-70
2023/10/25 09:32:19;;;;;;;9.43;4.32;;;12.40;99.90;;;;;;5027792;28;20033;-71
2023/10/25 09:34:48;;;;;;;9.27;4.32;;;12.30;99.90;;;;;;5027438;28;20032;-71
2023/10/25 09:37:15;;;;;;;8.18;4.55;;;12.20;99.90;;;;;;5008171;28;20037;-70
2023/10/25 09:39:41;;;;;;;8.43;4.10;;;12.20;99.90;;;;;;5012826;28;20033;-71
2023/10/25 09:42:12;;;;;;;12.90;4.00;;;12.20;99.90;;;;;;5027926;28;20044;-70
2023/10/25 09:44:47;;;;;;;6.82;3.40;;;12.20;99.90;;;;;;5021730;28;20382;-71
2023/10/25 09:47:15;;;;;;;6.93;3.67;;;12.30;99.90;;;;;;4970253;28;20129;-70
2023/10/25 09:49:52;;;;;;;5.78;3.28;;;12.30;99.90;;;;;;4995547;28;20420;-71
2023/10/25 09:52:25;;;;;;;8.18;3.85;;;12.30;99.90;;;;;;5027967;28;20504;-71
2023/10/25 09:54:57;;;;;;;7.25;3.80;;;12.30;99.90;;;;;;5026935;28;20466;-71
2023/10/25 09:57:29;;;;;;;7.60;3.40;;;12.30;99.90;;;;;;5008195;28;20396;-71
2023/10/25 09:59:56;;;;;;;5.80;2.80;;;12.20;99.90;;;;;;5013072;28;20107;-71
2023/10/25 10:02:50;;;;;;;6.63;3.50;;;12.20;99.90;;;;;;5027728;28;20092;-71
2023/10/25 10:05:45;;;;;;;6.65;3.42;;;12.30;99.90;;;;;;5005311;28;20035;-70
2023/10/25 10:08:27;;;;;;;7.43;3.78;;;12.30;99.90;;;;;;5008208;28;20036;-71
2023/10/25 10:11:04;;;;;;;7.70;3.42;;;12.30;99.90;;;;;;5020560;28;20037;-71
2023/10/25 10:13:30;;;;;;;8.85;4.05;;;12.20;99.90;;;;;;5027948;28;20131;-70
2023/10/25 10:16:11;;;;;;;6.78;3.33;;;12.30;99.90;;;;;;5009943;28;20030;-71
2023/10/25 10:18:41;;;;;;;6.50;3.38;;;12.30;99.90;;;;;;4990216;28;20030;-71
2023/10/25 10:21:08;;;;;;;8.68;3.55;;;12.40;99.90;;;;;;5021331;28;20049;-71
2023/10/25 10:23:39;;;;;;;6.55;3.42;;;12.40;99.90;;;;;;5027974;28;20100;-70
2023/10/25 10:26:07;;;;;;;;;;;12.40;99.90;;;;;;5027570;28;20033;-72
2023/10/25 10:28:41;;;;;;;4.78;2.63;;;12.30;99.90;;;;;;5013592;28;19991;-71
2023/10/25 10:31:08;;;;;;;6.57;3.67;;;12.30;99.90;;;;;;5021419;28;20083;-71
2023/10/25 10:33:47;;;;;;;7.07;3.47;;;12.40;99.90;;;;;;5027617;28;20545;-71
2023/10/25 10:36:27;;;;;;;5.60;3.20;;;12.40;99.90;;;;;;5027357;28;20084;-71
2023/10/25 10:39:12;;;;;;;5.63;3.13;;;12.40;99.90;;;;;;5013237;28;20281;-70
2023/10/25 10:41:42;;;;;;;7.50;3.78;;;12.40;99.90;;;;;;5024800;28;20068;-70
2023/10/25 10:44:08;;;;;;;6.75;3.45;;;12.40;99.90;;;;;;5024091;28;20037;-71
2023/10/25 10:46:43;;;;;;;6.28;3.30;;;12.40;99.90;;;;;;5008047;28;20037;-70
2023/10/25 10:49:13;;;;;;;5.93;3.05;;;12.40;99.90;;;;;;5007308;28;20484;-71
2023/10/25 10:51:39;;;;;;;7.05;3.55;;;12.50;99.90;;;;;;5024486;28;20536;-70
2023/10/25 10:54:06;;;;;;;8.35;3.60;;;12.50;99.90;;;;;;5017831;28;20065;-72
2023/10/25 10:56:33;;;;;;;6.85;3.17;;;12.50;99.90;;;;;;5008072;28;20030;-70
2023/10/25 10:59:00;;;;;;;4.55;2.85;;;12.60;99.90;;;;;;5010530;28;20379;-70
2023/10/25 11:01:26;;;;;;;6.70;2.75;;;12.60;99.90;;;;;;5024826;28;20053;-70
2023/10/25 11:03:52;;;;;;;10.07;2.20;;;12.60;99.90;;;;;;5014819;28;20034;-70
2023/10/25 11:06:21;;;;;;;4.93;1.95;;;12.70;99.90;;;;;;5007445;28;20055;-70
2023/10/25 11:08:46;;;;;;;4.78;2.03;;;12.70;99.90;;;;;;5017437;28;20914;-70
2023/10/25 11:11:13;;;;;;;4.88;2.38;;;12.70;99.90;;;;;;5022587;28;20069;-70
2023/10/25 11:13:39;;;;;;;4.55;2.45;;;12.70;99.90;;;;;;5016717;28;20065;-71
2023/10/25 11:16:10;;;;;;;5.30;2.72;;;12.70;99.90;;;;;;5011037;28;20029;-71
2023/10/25 11:18:36;;;;;;;5.47;2.60;;;12.70;99.90;;;;;;5016639;28;20034;-70
2023/10/25 11:21:02;;;;;;;4.90;2.28;;;12.70;99.90;;;;;;5012928;28;20366;-70
2023/10/25 11:23:28;;;;;;;7.82;2.78;;;12.80;99.90;;;;;;5030050;28;20567;-71
2023/10/25 11:25:54;;;;;;;5.15;2.78;;;12.80;99.90;;;;;;5030633;28;20040;-70
2023/10/25 11:28:21;;;;;;;5.35;2.90;;;12.80;99.90;;;;;;5023728;28;20060;-71
2023/10/25 11:30:49;;;;;;;5.82;3.05;;;12.80;99.90;;;;;;5030757;28;20087;-70
2023/10/25 11:33:18;;;;;;;5.82;3.08;;;12.70;99.90;;;;;;5029547;28;20401;-70
2023/10/25 11:35:44;;;;;;;5.05;3.05;;;12.80;99.90;;;;;;5021390;28;20030;-71
2023/10/25 11:38:11;;;;;;;5.80;3.13;;;12.80;99.90;;;;;;4993214;28;20394;-70
2023/10/25 11:40:38;;;;;;;5.40;3.10;;;12.80;99.90;;;;;;5030438;28;20048;-70
2023/10/25 11:43:05;;;;;;;7.25;3.53;;;12.80;99.90;;;;;;5030354;28;20034;-70
2023/10/25 11:45:32;;;;;;;7.68;3.40;;;12.80;99.90;;;;;;5016078;28;20109;-70
2023/10/25 11:47:58;;;;;;;7.28;3.55;;;12.80;99.90;;;;;;5010806;28;20060;-70
2023/10/25 11:50:23;;;;;;;8.65;4.43;;;12.90;99.90;;;;;;5029021;28;20075;-70
2023/10/25 11:52:49;;;;;;;9.65;4.95;;;12.90;99.90;;;;;;5030575;28;20037;-70
2023/10/25 11:55:15;;;;;;;11.23;5.10;;;12.80;99.90;;;;;;5029558;28;20021;-71
2023/10/25 11:57:42;;;;;;;11.63;6.10;;;12.80;99.90;;;;;;5027944;28;20088;-70
2023/10/25 12:00:11;;;;;;;12.77;6.28;;;12.70;99.90;;;;;;5026341;28;20037;-72
2023/10/25 12:02:37;;;;;;;13.65;6.93;;;12.70;99.90;;;;;;5024556;28;20041;-70
2023/10/25 12:05:03;;;;;;;12.25;6.63;;;12.70;99.90;;;;;;5010839;28;20373;-71
2023/10/25 12:07:33;;;;;;;16.40;7.53;;;12.70;99.90;;;;;;5009699;28;20098;-71
2023/10/25 12:09:58;;;;;;;18.20;8.68;;;12.80;99.90;;;;;;5010144;28;20101;-70
2023/10/25 12:12:24;;;;;;;15.10;7.80;;;12.80;99.90;;;;;;5012068;28;20073;-70
2023/10/25 12:14:51;;;;;;;15.68;7.70;;;12.80;99.90;;;;;;5021433;28;20378;-70
2023/10/25 12:17:18;;;;;;;14.27;7.47;;;12.80;99.90;;;;;;5009493;28;20030;-72
2023/10/25 12:19:44;;;;;;;14.55;7.55;;;12.90;99.90;;;;;;5010553;28;20046;-70
2023/10/25 12:22:12;;;;;;;17.02;8.30;;;13.00;99.90;;;;;;5010738;28;20065;-71
2023/10/25 12:24:40;;;;;;;21.38;8.77;;;13.00;99.90;;;;;;5029760;28;20068;-70
2023/10/25 12:27:07;;;;;;;14.65;7.63;;;13.00;99.90;;;;;;5030004;28;20112;-70
2023/10/25 12:29:33;;;;;;;18.45;8.30;;;13.00;99.90;;;;;;5012650;28;20088;-70
2023/10/25 12:31:59;;;;;;;19.98;9.23;;;13.00;99.90;;;;;;5010085;28;20034;-70
2023/10/25 12:34:25;;;;;;;18.48;8.93;;;13.00;99.90;;;;;;5028278;28;20041;-70
2023/10/25 12:36:51;;;;;;;18.20;9.15;;;13.10;99.90;;;;;;5029746;28;20057;-70
2023/10/25 12:39:17;;;;;;;17.98;9.05;;;13.10;99.90;;;;;;5015196;28;20121;-70
2023/10/25 12:41:44;;;;;;;19.25;9.50;;;13.10;99.90;;;;;;4992190;28;20439;-70